Time;durP1;ratioP1;P1;durP2;ratioP2;P2;SDS_P1;SDS_P2;PMS_P1;PMS_P2;Temp;Humidity;BMP_temperature;BMP_pressure;BME280_temperature;BME280_humidity;BME280_pressure;Samples;Min_cycle;Max_cycle;Signal;HPM_P1;HPM_P2
2022/01/22 00:01:56;;;;;;;9.27;5.23;;;5.60;99.90;;;;;;4967650;28;20441;-70
2022/01/22 00:04:24;;;;;;;7.40;5.50;;;5.60;99.90;;;;;;4973423;28;20497;-69
2022/01/22 00:06:54;;;;;;;11.50;5.53;;;5.60;99.90;;;;;;4966143;28;20461;-69
2022/01/22 00:09:25;;;;;;;8.70;4.63;;;5.60;99.90;;;;;;4970999;28;20471;-69
2022/01/22 00:11:53;;;;;;;10.93;6.23;;;5.60;99.90;;;;;;4965227;28;20462;-69
2022/01/22 00:14:27;;;;;;;15.47;6.00;;;5.50;99.90;;;;;;4969317;28;20461;-69
2022/01/22 00:16:55;;;;;;;7.83;5.87;;;5.50;99.90;;;;;;4959885;28;20598;-69
2022/01/22 00:19:24;;;;;;;7.33;4.60;;;5.50;99.90;;;;;;4972324;28;20445;-69
2022/01/22 00:21:51;;;;;;;13.37;6.33;;;5.60;99.90;;;;;;4972466;28;20429;-69
2022/01/22 00:24:19;;;;;;;7.80;6.33;;;5.80;99.90;;;;;;4975503;28;20468;-69
2022/01/22 00:26:47;;;;;;;10.83;7.20;;;5.60;99.90;;;;;;4964181;28;20461;-69
2022/01/22 00:29:16;;;;;;;8.43;6.57;;;5.60;99.90;;;;;;4972167;28;20454;-69
2022/01/22 00:31:44;;;;;;;4.17;3.03;;;5.70;99.90;;;;;;4968655;28;20437;-69
2022/01/22 00:34:11;;;;;;;11.30;7.00;;;5.70;99.90;;;;;;4963760;28;20544;-70
2022/01/22 00:36:40;;;;;;;7.83;4.70;;;5.70;99.90;;;;;;4972202;28;20463;-68
2022/01/22 00:39:08;;;;;;;9.57;6.33;;;5.70;99.90;;;;;;4961564;28;20858;-68
2022/01/22 00:41:35;;;;;;;10.70;6.93;;;5.70;99.90;;;;;;4967836;28;20540;-68
2022/01/22 00:44:03;;;;;;;5.43;4.53;;;5.70;99.90;;;;;;4967703;28;20428;-68
2022/01/22 00:46:30;;;;;;;7.57;5.70;;;5.60;99.90;;;;;;4965628;28;20493;-67
2022/01/22 00:48:57;;;;;;;11.03;6.93;;;5.70;99.90;;;;;;4963625;28;20524;-68
2022/01/22 00:51:24;;;;;;;9.87;5.70;;;5.70;99.90;;;;;;4967721;28;20585;-67
2022/01/22 00:53:53;;;;;;;13.30;6.20;;;5.70;99.90;;;;;;4963449;28;20563;-67
2022/01/22 00:56:20;;;;;;;7.40;4.43;;;5.70;99.90;;;;;;4971156;28;20464;-68
2022/01/22 00:58:47;;;;;;;9.33;7.27;;;5.70;99.90;;;;;;4976021;28;20437;-68
2022/01/22 01:01:14;;;;;;;7.97;5.80;;;5.60;99.90;;;;;;4966760;28;20510;-68
2022/01/22 01:03:41;;;;;;;2.77;2.50;;;5.60;99.90;;;;;;4955614;28;20462;-67
2022/01/22 01:06:09;;;;;;;9.87;5.57;;;5.70;99.90;;;;;;4960873;28;20464;-68
2022/01/22 01:08:36;;;;;;;8.00;5.13;;;5.60;99.90;;;;;;4974532;28;20484;-68
2022/01/22 01:11:06;;;;;;;10.07;6.67;;;5.60;99.90;;;;;;4970472;28;20474;-67
2022/01/22 01:13:40;;;;;;;10.40;6.10;;;5.60;99.90;;;;;;4961378;28;20472;-68
2022/01/22 01:16:18;;;;;;;6.73;5.17;;;5.60;99.90;;;;;;4967883;28;20454;-68
2022/01/22 01:32:37;;;;;;;7.23;4.73;;;5.60;99.90;;;;;;4965488;28;21212;-68
2022/01/22 01:35:07;;;;;;;9.37;5.90;;;5.60;99.90;;;;;;4971364;28;20452;-68
2022/01/22 01:37:34;;;;;;;5.97;3.37;;;5.60;99.90;;;;;;4961350;28;20987;-68
2022/01/22 01:40:04;;;;;;;5.77;4.40;;;5.70;99.90;;;;;;4968485;28;20520;-68
2022/01/22 01:42:41;;;;;;;7.93;3.97;;;5.60;99.90;;;;;;4966145;28;20462;-68
2022/01/22 01:45:09;;;;;;;10.07;4.87;;;5.60;99.90;;;;;;4961226;28;22155;-68
2022/01/22 01:47:38;;;;;;;16.20;4.00;;;5.50;99.90;;;;;;4969415;28;20546;-68
2022/01/22 01:50:06;;;;;;;7.83;4.33;;;5.50;99.90;;;;;;4970300;28;20809;-68
2022/01/22 01:52:41;;;;;;;12.73;4.67;;;5.60;99.90;;;;;;4962881;28;20446;-68
2022/01/22 01:55:13;;;;;;;2.97;2.77;;;5.50;99.90;;;;;;4970222;28;20469;-68
2022/01/22 01:57:42;;;;;;;8.97;5.50;;;5.60;99.90;;;;;;4971572;28;20498;-68
2022/01/22 02:00:16;;;;;;;7.37;5.33;;;5.60;99.90;;;;;;4964794;28;20520;-67
2022/01/22 02:02:45;;;;;;;3.23;2.20;;;5.60;99.90;;;;;;4968634;28;20466;-67
2022/01/22 02:05:12;;;;;;;14.57;5.60;;;5.60;99.90;;;;;;4974725;28;20458;-68
2022/01/22 02:07:41;;;;;;;11.57;4.87;;;5.60;99.90;;;;;;4963464;28;20493;-68
2022/01/22 02:10:13;;;;;;;6.60;3.77;;;5.60;99.90;;;;;;4962850;28;20430;-68
2022/01/22 02:13:40;;;;;;;11.27;7.00;;;5.60;99.90;;;;;;4964360;28;20446;-67
2022/01/22 02:24:04;;;;;;;7.57;4.57;;;5.50;99.90;;;;;;4933210;28;20564;-68
2022/01/22 02:26:31;;;;;;;6.70;4.17;;;5.60;99.90;;;;;;4971374;28;20863;-67
2022/01/22 02:28:58;;;;;;;10.23;3.90;;;5.60;99.90;;;;;;4977890;28;20433;-67
2022/01/22 02:31:33;;;;;;;11.20;5.77;;;5.60;99.90;;;;;;4969278;28;20589;-67
2022/01/22 02:34:09;;;;;;;11.90;5.90;;;5.60;99.90;;;;;;4969666;28;20455;-67
2022/01/22 02:36:42;;;;;;;6.87;4.93;;;5.70;99.90;;;;;;4973006;28;20452;-68
2022/01/22 02:39:14;;;;;;;7.30;4.50;;;5.60;99.90;;;;;;4970791;28;20466;-67
2022/01/22 02:41:46;;;;;;;5.67;3.00;;;5.60;99.90;;;;;;4971648;28;20495;-67
2022/01/22 02:44:21;;;;;;;20.13;5.20;;;5.60;99.90;;;;;;4964439;28;21466;-67
2022/01/22 02:46:50;;;;;;;8.03;5.23;;;5.60;99.90;;;;;;4965496;28;20465;-67
2022/01/22 02:49:17;;;;;;;5.97;4.30;;;5.60;99.90;;;;;;4975386;28;20429;-67
2022/01/22 02:51:46;;;;;;;8.47;4.37;;;5.60;99.90;;;;;;4963834;28;20472;-68
2022/01/22 02:54:13;;;;;;;5.07;3.27;;;5.60;99.90;;;;;;4963451;28;20457;-68
2022/01/22 02:56:40;;;;;;;8.47;4.10;;;5.50;99.90;;;;;;4976938;28;20497;-67
2022/01/22 02:59:07;;;;;;;5.93;3.50;;;5.60;99.90;;;;;;4976739;28;20437;-67
2022/01/22 03:01:34;;;;;;;7.70;3.90;;;5.60;99.90;;;;;;4967605;28;20474;-68
2022/01/22 03:04:01;;;;;;;5.10;3.10;;;5.60;99.90;;;;;;4966300;28;20962;-67
2022/01/22 03:06:28;;;;;;;12.27;5.47;;;5.60;99.90;;;;;;4969435;28;20462;-67
2022/01/22 03:08:56;;;;;;;11.53;4.60;;;5.50;99.90;;;;;;4969588;28;20580;-68
2022/01/22 03:11:29;;;;;;;7.83;4.80;;;5.60;99.90;;;;;;4978373;28;20490;-68
2022/01/22 03:16:54;;;;;;;9.87;6.03;;;5.60;99.90;;;;;;4970548;28;21592;-68
2022/01/22 03:19:43;;;;;;;9.27;3.80;;;5.70;99.90;;;;;;4975280;28;20466;-68
2022/01/22 03:22:17;;;;;;;11.00;6.63;;;5.80;99.90;;;;;;4967121;28;20567;-67
2022/01/22 03:27:31;;;;;;;5.40;3.93;;;5.80;99.90;;;;;;4969037;28;20478;-68
2022/01/22 03:29:59;;;;;;;4.27;2.77;;;5.80;99.90;;;;;;4968232;28;20436;-67
2022/01/22 03:32:29;;;;;;;11.20;5.50;;;5.70;99.90;;;;;;4971883;28;20474;-68
2022/01/22 03:34:59;;;;;;;4.30;3.80;;;5.60;99.90;;;;;;4962607;28;20461;-68
2022/01/22 03:37:28;;;;;;;5.53;3.50;;;5.70;99.90;;;;;;4967677;28;20499;-68
2022/01/22 03:39:56;;;;;;;7.30;5.13;;;5.70;99.90;;;;;;4966138;28;20477;-67
2022/01/22 03:42:24;;;;;;;7.43;5.70;;;5.70;99.90;;;;;;4974400;28;20508;-68
2022/01/22 03:44:51;;;;;;;7.50;5.27;;;5.70;99.90;;;;;;4969001;28;20905;-68
2022/01/22 03:47:18;;;;;;;2.93;2.73;;;5.70;99.90;;;;;;4965161;28;21220;-68
2022/01/22 03:49:45;;;;;;;10.87;5.87;;;5.70;99.90;;;;;;4972748;28;20444;-67
2022/01/22 03:52:12;;;;;;;6.53;3.13;;;5.70;99.90;;;;;;4970123;28;20494;-68
2022/01/22 03:54:39;;;;;;;4.77;3.00;;;5.70;99.90;;;;;;4959535;28;20457;-67
2022/01/22 03:57:09;;;;;;;4.73;3.20;;;5.80;99.90;;;;;;4973619;28;20578;-67
2022/01/22 03:59:36;;;;;;;4.37;3.20;;;5.80;99.90;;;;;;4969128;28;20445;-67
2022/01/22 04:04:51;;;;;;;6.63;4.93;;;5.80;99.90;;;;;;4947190;28;20479;-67
2022/01/22 04:10:10;;;;;;;6.73;4.30;;;5.90;99.90;;;;;;4951531;28;20457;-68
2022/01/22 04:12:46;;;;;;;9.60;3.90;;;5.90;99.90;;;;;;4968807;28;21013;-69
2022/01/22 04:15:16;;;;;;;8.27;5.10;;;5.90;99.90;;;;;;4965543;28;20575;-69
2022/01/22 04:26:04;;;;;;;4.33;3.07;;;6.00;99.90;;;;;;4961524;28;20519;-69
2022/01/22 04:28:33;;;;;;;7.87;5.33;;;6.00;99.90;;;;;;4968482;28;20496;-69
2022/01/22 04:31:00;;;;;;;5.10;3.87;;;6.10;99.90;;;;;;4972016;28;20556;-69
2022/01/22 04:33:27;;;;;;;5.53;4.57;;;6.00;99.90;;;;;;4959351;28;20553;-67
2022/01/22 04:35:54;;;;;;;7.27;5.53;;;6.10;99.90;;;;;;4959920;28;21036;-67
2022/01/22 04:38:21;;;;;;;8.47;4.60;;;6.10;99.90;;;;;;4968156;28;20655;-68
2022/01/22 04:40:48;;;;;;;4.50;3.73;;;6.00;99.90;;;;;;4970437;28;20471;-68
2022/01/22 04:43:15;;;;;;;6.63;4.57;;;6.00;99.90;;;;;;4955012;28;20475;-67
2022/01/22 04:45:52;;;;;;;7.67;4.70;;;6.10;99.90;;;;;;4965427;28;21139;-68
2022/01/22 04:48:39;;;;;;;10.70;4.30;;;6.10;99.90;;;;;;4963726;28;20818;-67
2022/01/22 04:56:36;;;;;;;5.83;4.00;;;6.10;99.90;;;;;;4977198;28;21201;-67
2022/01/22 04:59:03;;;;;;;4.77;3.03;;;6.10;99.90;;;;;;4965533;28;20478;-68
2022/01/22 05:01:31;;;;;;;8.50;3.60;;;6.10;99.90;;;;;;4963241;28;20493;-67
2022/01/22 05:03:58;;;;;;;4.13;3.77;;;6.10;99.90;;;;;;4964191;28;20467;-67
2022/01/22 05:06:26;;;;;;;6.87;4.60;;;6.10;99.90;;;;;;4967179;28;20549;-67
2022/01/22 05:08:53;;;;;;;4.57;3.83;;;6.20;99.90;;;;;;4967124;28;20599;-69
2022/01/22 05:11:20;;;;;;;7.00;4.20;;;6.10;99.90;;;;;;4957106;28;21030;-68
2022/01/22 05:13:47;;;;;;;8.53;4.10;;;6.20;99.90;;;;;;4963965;28;20436;-68
2022/01/22 05:16:15;;;;;;;6.37;3.60;;;6.20;99.90;;;;;;4968855;28;20486;-68
2022/01/22 05:18:50;;;;;;;7.63;4.70;;;6.20;99.90;;;;;;4967616;28;20453;-68
2022/01/22 05:21:19;;;;;;;9.40;5.20;;;6.30;99.90;;;;;;4961745;28;20527;-70
2022/01/22 05:23:46;;;;;;;7.10;4.30;;;6.20;99.90;;;;;;4962007;28;20524;-66
2022/01/22 05:26:30;;;;;;;8.60;4.27;;;6.30;99.90;;;;;;4969380;28;20456;-69
2022/01/22 05:29:16;;;;;;;7.67;3.90;;;6.30;99.90;;;;;;4963903;28;20487;-66
2022/01/22 05:32:04;;;;;;;6.53;3.80;;;6.40;99.90;;;;;;4968517;28;20421;-67
2022/01/22 05:37:16;;;;;;;8.83;5.23;;;6.40;99.90;;;;;;4966460;28;20440;-66
2022/01/22 05:39:43;;;;;;;11.90;4.50;;;6.40;99.90;;;;;;4968894;28;21173;-68
2022/01/22 05:42:11;;;;;;;10.03;5.27;;;6.40;99.90;;;;;;4964000;28;20462;-67
2022/01/22 05:44:38;;;;;;;8.47;5.03;;;6.40;99.90;;;;;;4969489;28;20470;-67
2022/01/22 05:47:06;;;;;;;8.00;4.23;;;6.40;99.90;;;;;;4973431;28;20445;-68
2022/01/22 05:49:40;;;;;;;9.47;3.63;;;6.40;99.90;;;;;;4964305;28;20479;-68
2022/01/22 05:52:10;;;;;;;9.40;5.40;;;6.40;99.90;;;;;;4967529;28;20881;-68
2022/01/22 05:55:07;;;;;;;6.90;3.90;;;6.30;99.90;;;;;;4966703;28;20486;-68
2022/01/22 06:00:19;;;;;;;6.70;3.20;;;6.40;99.90;;;;;;4974332;28;20448;-68
2022/01/22 06:02:46;;;;;;;6.70;3.93;;;6.40;99.90;;;;;;4974627;28;20482;-68
2022/01/22 06:05:14;;;;;;;4.40;2.70;;;6.40;99.90;;;;;;4968709;28;20530;-68
2022/01/22 06:07:41;;;;;;;11.80;5.00;;;6.40;99.90;;;;;;4971082;28;22687;-68
2022/01/22 06:10:17;;;;;;;5.93;4.30;;;6.30;99.90;;;;;;4971659;28;20479;-69
2022/01/22 06:12:58;;;;;;;11.33;5.57;;;6.30;99.90;;;;;;4964064;28;22477;-68
2022/01/22 06:15:25;;;;;;;9.73;5.37;;;6.40;99.90;;;;;;4967128;28;20569;-68
2022/01/22 06:17:52;;;;;;;6.53;4.30;;;6.40;99.90;;;;;;4970194;28;20466;-68
2022/01/22 06:20:20;;;;;;;11.53;4.97;;;6.40;99.90;;;;;;4972956;28;20421;-68
2022/01/22 06:22:48;;;;;;;7.47;4.30;;;6.50;99.90;;;;;;4972834;28;21033;-68
2022/01/22 06:25:15;;;;;;;8.17;4.90;;;6.50;99.90;;;;;;4972113;28;20466;-68
2022/01/22 06:27:42;;;;;;;8.63;4.77;;;6.60;99.90;;;;;;4972987;28;20429;-68
2022/01/22 06:30:10;;;;;;;10.10;4.27;;;6.60;99.90;;;;;;4972107;28;20573;-68
2022/01/22 06:32:37;;;;;;;10.43;4.80;;;6.70;99.90;;;;;;4969381;28;20453;-68
2022/01/22 06:35:05;;;;;;;9.07;4.33;;;6.60;99.90;;;;;;4965679;28;20457;-68
2022/01/22 06:37:34;;;;;;;12.63;6.27;;;6.70;99.90;;;;;;4965212;28;20453;-68
2022/01/22 06:42:45;;;;;;;7.23;4.37;;;6.60;99.90;;;;;;4972484;28;20825;-69
2022/01/22 06:45:12;;;;;;;11.43;4.60;;;6.60;99.90;;;;;;4976195;28;20871;-68
2022/01/22 06:47:40;;;;;;;6.73;3.83;;;6.70;99.90;;;;;;4979914;28;20471;-68
2022/01/22 06:50:08;;;;;;;9.73;4.53;;;6.70;99.90;;;;;;4975391;28;20537;-68
2022/01/22 06:52:37;;;;;;;25.03;3.93;;;6.70;99.90;;;;;;4971413;28;20446;-69
2022/01/22 06:55:05;;;;;;;8.17;4.60;;;6.70;99.90;;;;;;4975755;28;20480;-69
2022/01/22 06:57:33;;;;;;;6.53;4.00;;;6.70;99.90;;;;;;4977205;28;20452;-69
2022/01/22 07:00:00;;;;;;;5.60;3.10;;;6.70;99.90;;;;;;4977802;28;20499;-69
2022/01/22 07:02:28;;;;;;;5.53;2.90;;;6.70;99.90;;;;;;4979265;28;20417;-67
2022/01/22 07:04:55;;;;;;;5.70;4.40;;;6.70;99.90;;;;;;4976241;28;20442;-67
2022/01/22 07:07:22;;;;;;;7.60;5.20;;;6.80;99.90;;;;;;4979569;28;20501;-67
2022/01/22 07:09:50;;;;;;;13.80;4.30;;;6.70;99.90;;;;;;4976776;28;22175;-67
2022/01/22 07:12:17;;;;;;;8.60;4.73;;;6.60;99.90;;;;;;4973441;28;20550;-67
2022/01/22 07:14:48;;;;;;;9.77;6.20;;;6.60;99.90;;;;;;4967356;28;20494;-67
2022/01/22 07:17:16;;;;;;;5.77;4.47;;;6.60;99.90;;;;;;4971068;28;20486;-67
2022/01/22 07:19:43;;;;;;;7.30;4.50;;;6.60;99.90;;;;;;4970552;28;20589;-67
2022/01/22 07:22:31;;;;;;;5.27;3.10;;;6.70;99.90;;;;;;4971518;28;20453;-68
2022/01/22 07:24:59;;;;;;;7.93;5.40;;;6.80;99.90;;;;;;4970299;28;20508;-68
2022/01/22 07:27:26;;;;;;;7.57;4.73;;;6.60;99.90;;;;;;4963794;28;20546;-69
2022/01/22 07:29:53;;;;;;;7.67;5.30;;;6.60;99.90;;;;;;4967850;28;20456;-69
2022/01/22 07:32:29;;;;;;;9.50;5.17;;;6.50;99.90;;;;;;4961231;28;20535;-68
2022/01/22 07:34:56;;;;;;;8.63;3.77;;;6.50;99.90;;;;;;4960204;28;20519;-69
2022/01/22 07:37:24;;;;;;;7.10;3.73;;;6.50;99.90;;;;;;4962403;28;20513;-68
2022/01/22 07:39:51;;;;;;;7.77;3.83;;;6.70;99.90;;;;;;4963981;28;20437;-69
2022/01/22 07:42:19;;;;;;;4.83;2.60;;;6.80;99.90;;;;;;4959827;28;20445;-68
2022/01/22 07:44:46;;;;;;;4.87;3.33;;;6.80;99.90;;;;;;4951123;28;20477;-67
2022/01/22 07:47:13;;;;;;;8.13;4.30;;;7.00;99.90;;;;;;4965553;28;20469;-68
2022/01/22 07:49:41;;;;;;;11.20;4.90;;;6.90;99.90;;;;;;4976235;28;20567;-69
2022/01/22 07:52:08;;;;;;;6.00;3.43;;;6.90;99.90;;;;;;4974619;28;20451;-68
2022/01/22 07:54:35;;;;;;;6.40;4.17;;;7.00;99.90;;;;;;4973689;28;20469;-68
2022/01/22 07:57:03;;;;;;;12.83;4.77;;;7.00;99.90;;;;;;4971934;28;20493;-69
2022/01/22 07:59:33;;;;;;;9.67;7.00;;;6.90;99.90;;;;;;4976455;28;20525;-68
2022/01/22 08:02:03;;;;;;;8.40;5.63;;;6.80;99.90;;;;;;4971295;28;20511;-68
2022/01/22 08:04:30;;;;;;;14.23;5.40;;;6.90;99.90;;;;;;4975637;28;20503;-69
2022/01/22 08:06:59;;;;;;;11.20;4.80;;;6.90;99.90;;;;;;4981499;28;20485;-69
2022/01/22 08:09:26;;;;;;;8.80;3.67;;;6.70;99.90;;;;;;4979135;28;21140;-68
2022/01/22 08:11:53;;;;;;;7.17;3.70;;;6.90;99.90;;;;;;4977085;28;20624;-68
2022/01/22 08:14:20;;;;;;;8.70;4.10;;;6.80;99.90;;;;;;4979896;28;20540;-67
2022/01/22 08:16:49;;;;;;;5.47;3.80;;;6.70;99.90;;;;;;4977320;28;20495;-67
2022/01/22 08:19:17;;;;;;;6.50;4.10;;;6.70;99.90;;;;;;4978436;28;21088;-68
2022/01/22 08:21:45;;;;;;;7.40;4.83;;;6.80;99.90;;;;;;4978081;28;20477;-68
2022/01/22 08:24:12;;;;;;;8.50;4.70;;;6.90;99.90;;;;;;4978443;28;20441;-70
2022/01/22 08:26:45;;;;;;;8.33;4.20;;;7.00;99.90;;;;;;4974038;28;20477;-68
2022/01/22 08:29:12;;;;;;;14.53;6.93;;;6.90;99.90;;;;;;4970581;28;20458;-67
2022/01/22 08:31:48;;;;;;;7.13;4.30;;;6.90;99.90;;;;;;4982304;28;21141;-68
2022/01/22 08:37:01;;;;;;;8.60;4.20;;;6.80;99.90;;;;;;4972204;28;21034;-69
2022/01/22 08:39:28;;;;;;;6.67;4.10;;;6.80;99.90;;;;;;4974771;28;20447;-69
2022/01/22 08:41:56;;;;;;;4.10;2.60;;;6.80;99.90;;;;;;4969291;28;20498;-68
2022/01/22 08:44:23;;;;;;;7.43;4.53;;;6.80;99.90;;;;;;4971590;28;20472;-69
2022/01/22 08:46:50;;;;;;;6.13;3.20;;;6.70;99.90;;;;;;4967883;28;20820;-67
2022/01/22 08:49:18;;;;;;;8.10;3.50;;;6.90;99.90;;;;;;4972214;28;21583;-67
2022/01/22 08:51:46;;;;;;;4.77;2.63;;;6.90;99.90;;;;;;4972682;28;20940;-68
2022/01/22 08:54:12;;;;;;;5.50;2.90;;;6.90;99.90;;;;;;4968527;28;20430;-68
2022/01/22 08:56:41;;;;;;;8.43;4.23;;;6.70;99.90;;;;;;4972415;28;21222;-68
2022/01/22 08:59:08;;;;;;;6.70;5.37;;;6.70;99.90;;;;;;4969409;28;20466;-68
2022/01/22 09:01:36;;;;;;;6.37;4.60;;;6.80;99.90;;;;;;4972410;28;20457;-68
2022/01/22 09:04:03;;;;;;;7.37;5.03;;;6.90;99.90;;;;;;4970581;28;21028;-68
2022/01/22 09:06:31;;;;;;;10.53;3.53;;;6.90;99.90;;;;;;4970526;28;20842;-68
2022/01/22 09:09:07;;;;;;;7.13;2.90;;;6.90;99.90;;;;;;4976096;28;20557;-68
2022/01/22 09:11:34;;;;;;;9.03;3.67;;;7.00;99.90;;;;;;4967370;28;20441;-68
2022/01/22 09:14:02;;;;;;;11.03;4.60;;;7.00;99.90;;;;;;4969765;28;20441;-68
2022/01/22 09:16:29;;;;;;;7.20;3.67;;;7.00;99.90;;;;;;4970469;28;20521;-68
2022/01/22 09:19:05;;;;;;;8.77;3.73;;;6.90;99.90;;;;;;4970913;28;20517;-68
2022/01/22 09:21:34;;;;;;;8.77;4.30;;;7.00;99.90;;;;;;4969307;28;20473;-67
2022/01/22 09:24:01;;;;;;;21.43;5.07;;;7.00;99.90;;;;;;4966300;28;20612;-68
2022/01/22 09:26:29;;;;;;;5.50;2.77;;;6.90;99.90;;;;;;4966779;28;21756;-68
2022/01/22 09:28:58;;;;;;;5.73;4.47;;;7.00;99.90;;;;;;4970709;28;20437;-69
2022/01/22 09:31:25;;;;;;;13.20;6.97;;;7.20;99.90;;;;;;4964214;28;20433;-68
2022/01/22 09:33:55;;;;;;;10.43;6.00;;;7.10;99.90;;;;;;4963700;28;20488;-68
2022/01/22 09:36:22;;;;;;;10.50;7.20;;;7.10;99.90;;;;;;4972147;28;20490;-66
2022/01/22 09:38:51;;;;;;;5.47;3.70;;;7.20;99.90;;;;;;4984225;28;20524;-68
2022/01/22 09:41:19;;;;;;;8.37;3.63;;;7.10;99.90;;;;;;4972711;28;20470;-68
2022/01/22 09:43:46;;;;;;;10.20;5.03;;;7.10;99.90;;;;;;4964935;28;21252;-68
2022/01/22 09:46:14;;;;;;;6.80;4.57;;;7.20;99.90;;;;;;4975124;28;22138;-67
2022/01/22 09:48:41;;;;;;;6.77;4.23;;;7.10;99.90;;;;;;4975131;28;20635;-67
2022/01/22 09:51:08;;;;;;;9.20;4.73;;;7.10;99.90;;;;;;4974422;28;20542;-67
2022/01/22 09:53:36;;;;;;;9.40;4.93;;;7.20;99.90;;;;;;4975076;28;21054;-68
2022/01/22 09:56:05;;;;;;;11.10;4.50;;;7.20;99.90;;;;;;4969939;28;20486;-68
2022/01/22 09:58:32;;;;;;;10.63;6.30;;;7.20;99.90;;;;;;4975815;28;20473;-67
2022/01/22 10:01:23;;;;;;;8.70;5.57;;;7.30;99.90;;;;;;4972092;28;20548;-69
2022/01/22 10:03:51;;;;;;;12.67;6.90;;;7.20;99.90;;;;;;4969424;28;20474;-69
2022/01/22 10:06:20;;;;;;;14.70;6.73;;;7.20;99.90;;;;;;4974366;28;20960;-67
2022/01/22 10:08:47;;;;;;;8.40;4.50;;;7.20;99.90;;;;;;4972293;28;20464;-69
2022/01/22 10:11:20;;;;;;;10.33;5.77;;;7.10;99.90;;;;;;4964928;28;21024;-68
2022/01/22 10:13:50;;;;;;;16.50;7.07;;;7.30;99.90;;;;;;4964785;28;20569;-67
2022/01/22 10:16:22;;;;;;;10.60;5.27;;;7.20;99.90;;;;;;4973624;28;21063;-67
2022/01/22 10:19:08;;;;;;;14.90;6.27;;;7.30;99.90;;;;;;4968409;28;20448;-70
2022/01/22 10:21:36;;;;;;;4.07;3.30;;;7.30;99.90;;;;;;4968189;28;20485;-70
2022/01/22 10:24:36;;;;;;;23.60;4.80;;;7.10;99.90;;;;;;4975921;28;20465;-70
2022/01/22 10:27:32;;;;;;;8.80;3.73;;;7.10;99.90;;;;;;4972507;28;20519;-70
2022/01/22 10:30:03;;;;;;;9.37;4.23;;;7.20;99.90;;;;;;4978211;28;20487;-70
2022/01/22 10:32:42;;;;;;;7.57;4.77;;;7.20;99.90;;;;;;4974956;28;20466;-71
2022/01/22 10:35:11;;;;;;;6.97;3.40;;;7.30;99.90;;;;;;4967257;28;21917;-69
2022/01/22 10:37:39;;;;;;;9.33;4.80;;;7.30;99.90;;;;;;4970086;28;20486;-69
2022/01/22 10:40:21;;;;;;;6.30;3.00;;;7.30;99.90;;;;;;4970897;28;21270;-70
2022/01/22 10:42:50;;;;;;;10.87;4.13;;;7.30;99.90;;;;;;4967863;28;20478;-69
2022/01/22 10:45:26;;;;;;;12.30;5.37;;;7.30;99.90;;;;;;4974677;28;20446;-70
2022/01/22 10:48:14;;;;;;;11.17;5.77;;;7.30;99.90;;;;;;4968563;28;20467;-68
2022/01/22 10:50:41;;;;;;;7.57;4.13;;;7.20;99.90;;;;;;4966622;28;20466;-71
2022/01/22 10:53:08;;;;;;;6.43;4.47;;;7.20;99.90;;;;;;4970140;28;20437;-68
2022/01/22 10:56:02;;;;;;;8.00;4.00;;;7.10;99.90;;;;;;4952449;28;20805;-67
2022/01/22 10:58:33;;;;;;;7.33;4.83;;;7.30;99.90;;;;;;4946811;28;21001;-68
2022/01/22 11:01:02;;;;;;;5.23;4.07;;;7.30;99.90;;;;;;4957512;28;20569;-68
2022/01/22 11:03:29;;;;;;;6.03;3.70;;;7.60;99.90;;;;;;4959983;28;20933;-69
2022/01/22 11:05:58;;;;;;;9.80;5.30;;;7.80;99.90;;;;;;4966745;28;20458;-70
2022/01/22 11:08:28;;;;;;;8.43;3.73;;;8.10;99.90;;;;;;4963964;28;20449;-68
2022/01/22 11:10:55;;;;;;;5.67;2.53;;;8.30;99.90;;;;;;4973765;28;20502;-70
2022/01/22 11:13:22;;;;;;;6.70;4.37;;;8.10;99.90;;;;;;4964535;28;21037;-71
2022/01/22 11:15:52;;;;;;;8.80;3.43;;;8.00;99.90;;;;;;4961508;28;20580;-70
2022/01/22 11:18:21;;;;;;;6.20;4.17;;;7.90;99.90;;;;;;4964761;28;20477;-70
2022/01/22 11:20:49;;;;;;;3.20;2.87;;;7.80;99.90;;;;;;4959380;28;20960;-70
2022/01/22 11:23:18;;;;;;;8.07;4.70;;;7.80;99.90;;;;;;4968427;28;21053;-69
2022/01/22 11:25:45;;;;;;;5.43;3.40;;;7.60;99.90;;;;;;4964411;28;20429;-69
2022/01/22 11:28:14;;;;;;;13.53;3.60;;;7.50;99.90;;;;;;4961928;28;20489;-67
2022/01/22 11:30:46;;;;;;;5.80;3.50;;;7.50;99.90;;;;;;4965122;28;20433;-69
2022/01/22 11:33:18;;;;;;;9.87;3.20;;;7.50;99.90;;;;;;4972389;28;20576;-70
2022/01/22 11:36:01;;;;;;;1.47;1.37;;;7.40;99.90;;;;;;4965099;28;20597;-69
2022/01/22 11:38:30;;;;;;;4.50;3.37;;;7.30;99.90;;;;;;4967249;28;20493;-70
2022/01/22 11:41:08;;;;;;;4.30;2.77;;;7.20;99.90;;;;;;4963758;28;20934;-69
2022/01/22 11:44:02;;;;;;;4.23;2.80;;;7.50;99.90;;;;;;4961941;28;20456;-69
2022/01/22 11:46:33;;;;;;;7.30;3.80;;;7.60;99.90;;;;;;4963702;28;20447;-69
2022/01/22 11:49:21;;;;;;;5.07;3.33;;;7.90;99.90;;;;;;4960004;28;21089;-69
2022/01/22 11:51:50;;;;;;;2.80;2.43;;;8.00;99.90;;;;;;4961363;28;20458;-69
2022/01/22 11:54:19;;;;;;;10.67;3.07;;;7.80;99.90;;;;;;4963030;28;20523;-69
2022/01/22 11:56:49;;;;;;;3.47;2.47;;;7.90;99.90;;;;;;4966057;28;20901;-69
2022/01/22 11:59:21;;;;;;;7.57;3.40;;;7.80;99.90;;;;;;4957685;28;20433;-68
2022/01/22 12:02:05;;;;;;;5.67;3.43;;;7.60;99.90;;;;;;4953014;28;20542;-67
2022/01/22 12:04:59;;;;;;;6.60;4.07;;;7.40;99.90;;;;;;4969888;28;20962;-67
2022/01/22 12:07:26;;;;;;;5.00;4.30;;;7.40;99.90;;;;;;4965976;28;20514;-68
2022/01/22 12:10:21;;;;;;;3.87;2.70;;;7.50;99.90;;;;;;4966012;28;20466;-67
2022/01/22 12:15:51;;;;;;;3.20;2.20;;;7.70;99.90;;;;;;4962541;28;20613;-68
2022/01/22 12:18:21;;;;;;;2.97;1.63;;;7.40;99.90;;;;;;4960009;28;20789;-68
2022/01/22 12:23:53;;;;;;;1.83;1.30;;;7.30;99.90;;;;;;4962444;28;20577;-68
2022/01/22 12:26:51;;;;;;;2.53;1.83;;;7.50;99.90;;;;;;4965225;28;20944;-67
2022/01/22 12:30:00;;;;;;;2.47;1.60;;;7.60;99.90;;;;;;4905343;29;20487;-67
2022/01/22 12:32:34;;;;;;;1.47;1.37;;;7.70;99.90;;;;;;4966972;28;20461;-67
2022/01/22 12:35:15;;;;;;;5.10;2.03;;;8.00;99.90;;;;;;4974578;28;20851;-67
2022/01/22 12:37:52;;;;;;;5.10;2.53;;;8.10;99.90;;;;;;4970708;28;21077;-67
2022/01/22 12:40:31;;;;;;;3.90;2.73;;;8.40;99.90;;;;;;4964320;28;20924;-67
2022/01/22 12:43:07;;;;;;;3.33;1.90;;;8.40;99.90;;;;;;4970075;28;21181;-67
2022/01/22 12:45:38;;;;;;;3.60;2.00;;;8.20;99.90;;;;;;4969057;28;20462;-67
2022/01/22 12:48:05;;;;;;;4.57;2.07;;;8.00;99.90;;;;;;4952103;28;20585;-66
2022/01/22 12:50:36;;;;;;;1.47;1.20;;;8.00;99.90;;;;;;4962066;28;20494;-66
2022/01/22 12:53:14;;;;;;;2.13;1.47;;;8.00;99.90;;;;;;4981676;28;20494;-68
2022/01/22 12:58:36;;;;;;;2.03;1.83;;;8.00;99.90;;;;;;4980060;28;20543;-66
2022/01/22 13:01:17;;;;;;;3.40;1.77;;;7.90;99.90;;;;;;4977317;28;20464;-67
2022/01/22 13:03:47;;;;;;;3.20;1.70;;;8.00;99.90;;;;;;4977271;28;20469;-67
2022/01/22 13:06:14;;;;;;;2.23;1.70;;;7.90;99.90;;;;;;4978546;28;20465;-68
2022/01/22 13:08:43;;;;;;;2.17;1.83;;;7.80;99.90;;;;;;4982233;28;20454;-67
2022/01/22 13:11:13;;;;;;;2.20;1.97;;;7.60;99.90;;;;;;4975584;28;21004;-68
2022/01/22 13:13:41;;;;;;;2.43;2.00;;;7.50;99.90;;;;;;4974599;28;20520;-68
2022/01/22 13:16:10;;;;;;;5.53;2.03;;;7.50;99.90;;;;;;4975096;28;20462;-69
2022/01/22 13:18:42;;;;;;;1.87;1.20;;;7.60;99.90;;;;;;4978535;28;20545;-68
2022/01/22 13:21:10;;;;;;;4.07;3.13;;;7.60;99.90;;;;;;4976883;28;20450;-68
2022/01/22 13:23:37;;;;;;;2.67;1.60;;;7.50;99.90;;;;;;4975094;28;20441;-68
2022/01/22 13:26:07;;;;;;;8.40;3.87;;;7.30;99.90;;;;;;4980236;28;20817;-67
2022/01/22 13:28:36;;;;;;;3.80;2.93;;;7.40;99.90;;;;;;4978310;28;20461;-67
2022/01/22 13:31:15;;;;;;;3.57;2.63;;;7.40;99.90;;;;;;4974027;28;20554;-68
2022/01/22 13:33:50;;;;;;;2.17;1.97;;;7.40;99.90;;;;;;4975362;28;20903;-67
2022/01/22 13:36:27;;;;;;;3.43;2.50;;;7.50;99.90;;;;;;4978892;28;20454;-68
2022/01/22 13:49:54;;;;;;;3.97;2.17;;;7.70;99.90;;;;;;4952573;28;20457;-67
2022/01/22 13:52:27;;;;;;;4.90;2.00;;;7.50;99.90;;;;;;4967730;28;20539;-68
2022/01/22 13:54:54;;;;;;;3.10;1.80;;;7.40;99.90;;;;;;4962497;28;20503;-67
2022/01/22 13:57:25;;;;;;;2.23;1.80;;;7.50;99.90;;;;;;4977463;28;20577;-67
2022/01/22 13:59:55;;;;;;;3.87;2.70;;;7.40;99.90;;;;;;4979248;28;21210;-67
2022/01/22 14:02:37;;;;;;;3.57;2.33;;;7.40;99.90;;;;;;4971607;28;20525;-69
2022/01/22 14:05:07;;;;;;;2.03;1.83;;;7.40;99.90;;;;;;4972053;28;20533;-68
2022/01/22 14:07:38;;;;;;;2.00;1.60;;;7.40;99.90;;;;;;4973476;28;20437;-68
2022/01/22 14:10:07;;;;;;;12.33;1.90;;;7.30;99.90;;;;;;4972312;28;20468;-68
2022/01/22 14:12:51;;;;;;;2.53;1.27;;;7.30;99.90;;;;;;4973290;28;20545;-68
2022/01/22 14:15:33;;;;;;;2.10;1.90;;;7.40;99.90;;;;;;4957541;28;20429;-67
2022/01/22 14:18:13;;;;;;;3.73;1.90;;;7.40;99.90;;;;;;4974071;28;20853;-68
2022/01/22 14:20:42;;;;;;;4.60;2.03;;;7.50;99.90;;;;;;4973702;28;20439;-67
2022/01/22 14:23:11;;;;;;;3.13;1.60;;;7.40;99.90;;;;;;4976505;28;20471;-68
2022/01/22 14:25:54;;;;;;;1.83;1.27;;;7.40;99.90;;;;;;4975739;28;20504;-68
2022/01/22 14:28:23;;;;;;;3.63;2.00;;;7.40;99.90;;;;;;4979223;28;20899;-68
2022/01/22 14:30:51;;;;;;;2.67;1.97;;;7.40;99.90;;;;;;4980576;28;20848;-67
2022/01/22 14:33:19;;;;;;;2.90;2.30;;;7.40;99.90;;;;;;4978051;28;22331;-68